Time;durP1;ratioP1;P1;durP2;ratioP2;P2;SDS_P1;SDS_P2;PMS_P1;PMS_P2;Temp;Humidity;BMP_temperature;BMP_pressure;BME280_temperature;BME280_humidity;BME280_pressure;Samples;Min_cycle;Max_cycle;Signal;HPM_P1;HPM_P2
2022/03/22 00:01:53;;;;;;;13.25;7.00;;;;;;;-148.16;100.00;58328.31;5030828;28;20065;-60
2022/03/22 00:04:39;;;;;;;17.02;8.05;;;;;;;-148.16;100.00;58328.31;5016511;28;20170;-60
2022/03/22 00:07:24;;;;;;;14.98;7.50;;;;;;;-148.16;100.00;58328.31;5031030;28;20041;-60
2022/03/22 00:10:10;;;;;;;15.90;7.72;;;;;;;-148.16;100.00;58328.31;5030294;28;20579;-60
2022/03/22 00:12:54;;;;;;;13.95;7.90;;;;;;;-148.16;100.00;58328.31;5031165;28;20111;-60
2022/03/22 00:15:40;;;;;;;17.05;8.80;;;;;;;-148.16;100.00;58328.31;5016908;28;20049;-60
2022/03/22 00:18:25;;;;;;;16.52;8.32;;;;;;;-148.16;100.00;58328.31;5030440;28;20053;-60
2022/03/22 00:21:10;;;;;;;14.88;8.15;;;;;;;-148.16;100.00;58328.31;5030318;28;20087;-60
2022/03/22 00:23:55;;;;;;;14.63;7.60;;;;;;;-148.16;100.00;58328.31;5031153;28;20048;-60
2022/03/22 00:26:41;;;;;;;15.88;7.90;;;;;;;-148.16;100.00;58328.31;5030997;28;20049;-61
2022/03/22 00:29:27;;;;;;;16.50;8.27;;;;;;;-148.16;100.00;58328.31;5016369;28;20037;-60
2022/03/22 00:32:15;;;;;;;16.10;8.93;;;;;;;-148.16;100.00;58328.31;5030331;28;20060;-59
2022/03/22 00:35:02;;;;;;;15.23;8.77;;;;;;;-148.16;100.00;58328.31;5031054;28;20045;-60
2022/03/22 00:37:50;;;;;;;21.83;10.77;;;;;;;-148.16;100.00;58328.31;5030648;28;20046;-58
2022/03/22 00:40:36;;;;;;;18.58;10.50;;;;;;;-148.16;100.00;58328.31;5030955;28;20489;-59
2022/03/22 00:43:21;;;;;;;22.17;10.23;;;;;;;-148.16;100.00;58328.31;5030024;28;20041;-58
2022/03/22 00:46:06;;;;;;;17.77;9.75;;;;;;;-148.16;100.00;58328.31;5030982;28;20064;-59
2022/03/22 00:48:52;;;;;;;19.45;9.88;;;;;;;-148.16;100.00;58328.31;5016637;28;20077;-61
2022/03/22 00:51:37;;;;;;;19.08;9.35;;;;;;;-148.16;100.00;58328.31;5030062;28;20049;-60
2022/03/22 00:54:23;;;;;;;18.10;9.30;;;;;;;-148.16;100.00;58328.31;5029550;28;20053;-60
2022/03/22 00:57:09;;;;;;;18.95;8.57;;;;;;;-148.16;100.00;58328.31;5029666;28;20045;-60
2022/03/22 01:00:04;;;;;;;20.27;9.07;;;;;;;-148.16;100.00;58328.31;5031312;28;20385;-59
2022/03/22 01:02:51;;;;;;;18.00;9.13;;;;;;;-148.16;100.00;58328.31;5030789;28;20477;-59
2022/03/22 01:05:37;;;;;;;18.48;9.85;;;;;;;-148.16;100.00;58328.31;5030055;28;20056;-59
2022/03/22 01:08:23;;;;;;;21.00;9.95;;;;;;;-148.16;100.00;58328.31;5029845;28;20042;-59
2022/03/22 01:11:08;;;;;;;22.83;10.63;;;;;;;-148.16;100.00;58328.31;5016401;28;20041;-58
2022/03/22 01:13:54;;;;;;;19.63;10.52;;;;;;;-148.16;100.00;58328.31;5031753;28;20057;-59
2022/03/22 01:16:39;;;;;;;19.40;9.98;;;;;;;-148.16;100.00;58328.31;5030318;28;20064;-59
2022/03/22 01:19:24;;;;;;;18.50;10.02;;;;;;;-148.16;100.00;58328.31;5030637;28;20069;-59
2022/03/22 01:22:10;;;;;;;18.42;9.63;;;;;;;-148.16;100.00;58328.31;5031472;28;20091;-60
2022/03/22 01:24:55;;;;;;;19.40;9.82;;;;;;;-148.16;100.00;58328.31;5030002;28;20041;-59
2022/03/22 01:27:42;;;;;;;16.70;9.20;;;;;;;-148.16;100.00;58328.31;5016559;28;20045;-59
2022/03/22 01:30:27;;;;;;;16.30;8.38;;;;;;;-148.16;100.00;58328.31;5030963;28;20049;-59
2022/03/22 01:33:12;;;;;;;19.48;9.25;;;;;;;-148.16;100.00;58328.31;5016122;28;20117;-59
2022/03/22 01:35:58;;;;;;;20.10;9.98;;;;;;;-148.16;100.00;58328.31;5031140;28;20080;-59
2022/03/22 01:38:42;;;;;;;18.98;9.70;;;;;;;-148.16;100.00;58328.31;5030634;28;20041;-59
2022/03/22 01:41:27;;;;;;;17.30;9.30;;;;;;;-148.16;100.00;58328.31;5030520;28;20054;-59
2022/03/22 01:44:12;;;;;;;19.05;9.73;;;;;;;-148.16;100.00;58328.31;5030129;28;20045;-58
2022/03/22 01:47:01;;;;;;;21.63;9.15;;;;;;;-148.16;100.00;58328.31;5031827;28;20152;-60
2022/03/22 01:49:47;;;;;;;15.70;9.48;;;;;;;-148.16;100.00;58328.31;5032498;28;20350;-60
2022/03/22 01:52:36;;;;;;;19.73;10.10;;;;;;;-148.16;100.00;58328.31;5033158;28;20045;-60
2022/03/22 01:55:23;;;;;;;18.52;9.75;;;;;;;-148.16;100.00;58328.31;5046839;28;20064;-60
2022/03/22 01:58:09;;;;;;;20.98;9.57;;;;;;;-148.16;100.00;58328.31;5032511;28;20468;-60
2022/03/22 02:05:51;;;;;;;18.45;9.48;;;;;;;-148.16;100.00;58328.31;5046357;28;20051;-60
2022/03/22 02:07:04;;;;;;;21.27;10.65;;;;;;;-148.16;100.00;58328.31;5033946;28;20481;-60
2022/03/22 02:09:49;;;;;;;17.60;9.88;;;;;;;-148.16;100.00;58328.31;5034013;28;20045;-59
2022/03/22 02:12:35;;;;;;;19.83;9.85;;;;;;;-148.16;100.00;58328.31;5018738;28;20048;-59
2022/03/22 02:15:20;;;;;;;22.45;9.82;;;;;;;-148.16;100.00;58328.31;5032258;28;20115;-60
2022/03/22 02:18:05;;;;;;;20.75;9.85;;;;;;;-148.16;100.00;58328.31;5032506;28;20052;-59
2022/03/22 02:20:50;;;;;;;19.75;10.10;;;;;;;-148.16;100.00;58328.31;5033520;28;20053;-59
2022/03/22 02:23:40;;;;;;;18.95;9.15;;;;;;;-148.16;100.00;58328.31;5033465;28;20497;-59
2022/03/22 02:26:26;;;;;;;18.27;9.32;;;;;;;-148.16;100.00;58328.31;5026987;28;20068;-60
2022/03/22 02:29:11;;;;;;;18.38;8.57;;;;;;;-148.16;100.00;58328.31;5015329;28;20065;-59
2022/03/22 02:31:56;;;;;;;15.93;8.75;;;;;;;-148.16;100.00;58328.31;5031858;28;20049;-58
2022/03/22 02:34:41;;;;;;;16.83;8.18;;;;;;;-148.16;100.00;58328.31;5033166;28;20049;-59
2022/03/22 02:37:28;;;;;;;17.10;7.72;;;;;;;-148.16;100.00;58328.31;5033141;28;20469;-60
2022/03/22 02:40:14;;;;;;;15.98;7.38;;;;;;;-148.16;100.00;58328.31;5032205;28;20491;-58
2022/03/22 02:43:01;;;;;;;15.05;8.55;;;;;;;-148.16;100.00;58328.31;5033761;28;20060;-59
2022/03/22 02:45:46;;;;;;;15.63;7.85;;;;;;;-148.16;100.00;58328.31;5042694;28;20064;-59
2022/03/22 02:48:34;;;;;;;13.07;6.60;;;;;;;-148.16;100.00;58328.31;5062343;28;20048;-60
2022/03/22 02:51:19;;;;;;;15.77;7.43;;;;;;;-148.16;100.00;58328.31;5039088;28;20044;-59
2022/03/22 02:54:04;;;;;;;16.58;7.30;;;;;;;-148.16;100.00;58328.31;5038887;28;20489;-59
2022/03/22 02:56:48;;;;;;;14.30;6.65;;;;;;;-148.16;100.00;58328.31;5039376;28;20073;-59
2022/03/22 02:59:34;;;;;;;12.18;7.05;;;;;;;-148.16;100.00;58328.31;5011951;28;20541;-59
2022/03/22 03:02:19;;;;;;;15.75;7.35;;;;;;;-148.16;100.00;58328.31;4997528;28;20141;-58
2022/03/22 03:05:04;;;;;;;14.52;7.43;;;;;;;-148.16;100.00;58328.31;5011846;28;20564;-59
2022/03/22 03:07:50;;;;;;;11.85;6.88;;;;;;;-148.16;100.00;58328.31;5011809;28;20386;-60
2022/03/22 03:10:35;;;;;;;13.77;6.90;;;;;;;-148.16;100.00;58328.31;5012828;28;20045;-60
2022/03/22 03:13:20;;;;;;;14.68;7.00;;;;;;;-148.16;100.00;58328.31;5012591;28;20054;-59
2022/03/22 03:16:06;;;;;;;11.10;6.13;;;;;;;-148.16;100.00;58328.31;5011550;28;20038;-59
2022/03/22 03:18:51;;;;;;;12.85;6.60;;;;;;;-148.16;100.00;58328.31;4997475;28;20046;-59
2022/03/22 03:21:36;;;;;;;12.85;6.60;;;;;;;-148.16;100.00;58328.31;5012642;28;20498;-59
2022/03/22 03:24:21;;;;;;;12.50;5.93;;;;;;;-148.16;100.00;58328.31;5012208;28;20072;-58
2022/03/22 03:27:07;;;;;;;14.55;6.78;;;;;;;-148.16;100.00;58328.31;5011514;28;20452;-59
2022/03/22 03:29:51;;;;;;;11.40;6.07;;;;;;;-148.16;100.00;58328.31;5019783;28;20041;-59
2022/03/22 03:32:37;;;;;;;13.88;6.55;;;;;;;-148.16;100.00;58328.31;5031752;28;20472;-59
2022/03/22 03:35:21;;;;;;;16.42;6.95;;;;;;;-148.16;100.00;58328.31;5016514;28;20061;-58
2022/03/22 03:38:07;;;;;;;10.27;6.13;;;;;;;-148.16;100.00;58328.31;5031065;28;20509;-58
2022/03/22 03:47:03;;;;;;;12.55;6.82;;;;;;;-148.16;100.00;58328.31;5021458;28;20049;-59
2022/03/22 03:47:12;;;;;;;11.43;6.50;;;;;;;-148.16;100.00;58328.31;5025047;28;20050;-60
2022/03/22 03:50:01;;;;;;;13.52;7.28;;;;;;;-148.16;100.00;58328.31;5031661;28;20091;-59
2022/03/22 03:52:46;;;;;;;10.90;6.40;;;;;;;-148.16;100.00;58328.31;5032194;28;20138;-58
2022/03/22 03:55:31;;;;;;;13.38;6.85;;;;;;;-148.16;100.00;58328.31;5016449;28;20046;-61
2022/03/22 03:58:16;;;;;;;15.15;6.82;;;;;;;-148.16;100.00;58328.31;5030717;28;20045;-60
2022/03/22 04:01:01;;;;;;;12.68;6.57;;;;;;;-148.16;100.00;58328.31;5027901;28;20401;-61
2022/03/22 04:03:47;;;;;;;11.88;6.20;;;;;;;-148.16;100.00;58328.31;5017035;28;20049;-59
2022/03/22 04:06:33;;;;;;;15.40;6.40;;;;;;;-148.16;100.00;58328.31;5028318;28;20045;-59
2022/03/22 04:09:18;;;;;;;13.73;6.72;;;;;;;-148.16;100.00;58328.31;5039727;28;20043;-60
2022/03/22 04:12:04;;;;;;;13.82;6.93;;;;;;;-148.16;100.00;58328.31;5066527;28;20055;-60
2022/03/22 04:14:51;;;;;;;15.15;7.15;;;;;;;-148.16;100.00;58328.31;5040596;28;20060;-60
2022/03/22 04:17:36;;;;;;;15.00;6.78;;;;;;;-148.16;100.00;58328.31;5034030;28;20848;-59
2022/03/22 04:20:21;;;;;;;11.32;6.65;;;;;;;-148.16;100.00;58328.31;5030402;28;20042;-61
2022/03/22 04:23:08;;;;;;;13.38;7.03;;;;;;;-148.16;100.00;58328.31;5046655;28;20045;-60
2022/03/22 04:25:53;;;;;;;13.10;7.15;;;;;;;-148.16;100.00;58328.31;5050044;28;20059;-59
2022/03/22 04:34:46;;;;;;;10.90;5.90;;;;;;;-148.16;100.00;58328.31;5050559;28;20041;-60
2022/03/22 04:37:30;;;;;;;12.32;6.82;;;;;;;-148.16;100.00;58328.31;5050815;28;20090;-59
2022/03/22 04:40:16;;;;;;;10.70;6.28;;;;;;;-148.16;100.00;58328.31;5051609;28;20053;-59
2022/03/22 04:43:03;;;;;;;11.23;6.22;;;;;;;-148.16;100.00;58328.31;5051255;28;20049;-60
2022/03/22 04:45:50;;;;;;;11.63;6.28;;;;;;;-148.16;100.00;58328.31;5053415;28;20381;-60
2022/03/22 04:48:36;;;;;;;12.80;6.93;;;;;;;-148.16;100.00;58328.31;5051632;28;20041;-62
2022/03/22 04:57:28;;;;;;;14.88;6.78;;;;;;;-148.16;100.00;58328.31;5031059;28;20038;-59
2022/03/22 05:00:14;;;;;;;12.05;6.43;;;;;;;-148.16;100.00;58328.31;5030340;28;20132;-59
2022/03/22 05:03:01;;;;;;;12.82;7.00;;;;;;;-148.16;100.00;58328.31;5030211;28;20440;-60
2022/03/22 05:08:49;;;;;;;12.98;6.13;;;;;;;-148.16;100.00;58328.31;5031678;28;20064;-60
2022/03/22 05:11:35;;;;;;;13.10;6.47;;;;;;;-148.16;100.00;58328.31;5030042;28;20052;-60
2022/03/22 05:14:20;;;;;;;12.27;6.28;;;;;;;-148.16;100.00;58328.31;5027755;28;20099;-60
2022/03/22 05:17:05;;;;;;;13.73;6.80;;;;;;;-148.16;100.00;58328.31;5038397;28;20068;-59
2022/03/22 05:19:51;;;;;;;12.32;6.53;;;;;;;-148.16;100.00;58328.31;5028101;28;20075;-58
2022/03/22 05:22:37;;;;;;;12.85;6.95;;;;;;;-148.16;100.00;58328.31;5030743;28;20076;-60
2022/03/22 05:25:24;;;;;;;11.48;5.75;;;;;;;-148.16;100.00;58328.31;5018620;28;20049;-60
2022/03/22 05:28:09;;;;;;;13.02;6.20;;;;;;;-148.16;100.00;58328.31;5034552;28;20148;-60
2022/03/22 05:30:54;;;;;;;12.07;5.57;;;;;;;-148.16;100.00;58328.31;5053957;28;20412;-61
2022/03/22 05:33:39;;;;;;;12.48;5.10;;;;;;;-148.16;100.00;58328.31;5043447;28;20455;-61
2022/03/22 05:36:25;;;;;;;12.15;6.78;;;;;;;-148.16;100.00;58328.31;5034376;28;20366;-61
2022/03/22 05:39:09;;;;;;;13.02;6.50;;;;;;;-148.16;100.00;58328.31;5034349;28;20037;-60
2022/03/22 05:41:54;;;;;;;12.48;6.07;;;;;;;-148.16;100.00;58328.31;5047347;28;20037;-61
2022/03/22 05:44:41;;;;;;;12.35;6.38;;;;;;;-148.16;100.00;58328.31;5032955;28;20128;-61
2022/03/22 05:47:26;;;;;;;10.80;6.10;;;;;;;-148.16;100.00;58328.31;5047325;28;20539;-60
2022/03/22 05:50:11;;;;;;;14.25;5.93;;;;;;;-148.16;100.00;58328.31;5033718;28;20113;-61
2022/03/22 05:52:56;;;;;;;10.93;5.72;;;;;;;-148.16;100.00;58328.31;5033966;28;20049;-60
2022/03/22 05:55:41;;;;;;;13.73;5.85;;;;;;;-148.16;100.00;58328.31;5033604;28;20076;-61
2022/03/22 05:58:26;;;;;;;10.85;5.93;;;;;;;-148.16;100.00;58328.31;5033105;28;20045;-60
2022/03/22 06:01:12;;;;;;;11.32;6.20;;;;;;;-148.16;100.00;58328.31;5032970;28;20042;-60
2022/03/22 06:03:58;;;;;;;13.20;6.22;;;;;;;-148.16;100.00;58328.31;5056421;28;20060;-61
2022/03/22 06:06:43;;;;;;;11.07;6.22;;;;;;;-148.16;100.00;58328.31;5066512;28;20045;-62
2022/03/22 06:09:28;;;;;;;11.38;5.38;;;;;;;-148.16;100.00;58328.31;5053890;28;20052;-62
2022/03/22 06:12:14;;;;;;;14.35;6.50;;;;;;;-148.16;100.00;58328.31;5038136;28;20064;-61
2022/03/22 06:15:15;;;;;;;14.57;6.10;;;;;;;-148.16;100.00;58328.31;5033497;28;20045;-62
2022/03/22 06:18:02;;;;;;;17.88;6.15;;;;;;;-148.16;100.00;58328.31;5036036;28;20055;-64
2022/03/22 06:20:47;;;;;;;14.38;5.55;;;;;;;-148.16;100.00;58328.31;5052835;28;20056;-61
2022/03/22 06:23:33;;;;;;;10.65;5.88;;;;;;;-148.16;100.00;58328.31;5047273;28;20069;-61
2022/03/22 06:26:19;;;;;;;11.63;5.75;;;;;;;-148.16;100.00;58328.31;5049851;28;20068;-60
2022/03/22 06:29:04;;;;;;;10.85;5.45;;;;;;;-148.16;100.00;58328.31;5053126;28;20480;-61
2022/03/22 06:31:50;;;;;;;12.35;6.25;;;;;;;-148.16;100.00;58328.31;5050534;28;20116;-60
2022/03/22 06:34:35;;;;;;;13.25;7.20;;;;;;;-148.16;100.00;58328.31;5035884;28;20083;-61
2022/03/22 06:37:21;;;;;;;12.77;6.57;;;;;;;-148.16;100.00;58328.31;5034496;28;20069;-63
2022/03/22 06:40:09;;;;;;;10.70;6.63;;;;;;;-148.16;100.00;58328.31;5036238;28;20503;-62
2022/03/22 06:42:59;;;;;;;11.40;6.68;;;;;;;-148.16;100.00;58328.31;5040668;28;20033;-63
2022/03/22 06:45:45;;;;;;;14.88;6.60;;;;;;;-148.16;100.00;58328.31;5036023;28;20049;-62
2022/03/22 06:48:30;;;;;;;11.93;6.43;;;;;;;-148.16;100.00;58328.31;5016174;28;20050;-63
2022/03/22 06:51:15;;;;;;;12.38;7.22;;;;;;;-148.16;100.00;58328.31;5013652;28;20470;-62
2022/03/22 06:54:04;;;;;;;12.48;7.28;;;;;;;-148.16;100.00;58328.31;5035952;28;20049;-63
2022/03/22 06:56:50;;;;;;;15.00;7.38;;;;;;;-148.16;100.00;58328.31;5033268;28;20037;-62
2022/03/22 06:59:36;;;;;;;13.70;6.57;;;;;;;-148.16;100.00;58328.31;5037582;28;20211;-62
2022/03/22 07:02:21;;;;;;;11.90;6.75;;;;;;;-148.16;100.00;58328.31;5031945;28;20050;-64
2022/03/22 07:05:13;;;;;;;12.27;6.75;;;;;;;-148.16;100.00;58328.31;5032682;28;20815;-65
2022/03/22 07:07:58;;;;;;;15.63;6.88;;;;;;;-148.16;100.00;58328.31;5045680;28;20046;-61
2022/03/22 07:11:47;;;;;;;12.10;6.45;;;;;;;-148.16;100.00;58328.31;5032347;28;20056;-61
2022/03/22 07:13:49;;;;;;;18.30;8.70;;;;;;;-148.16;100.00;58328.31;5030843;28;20061;-62
2022/03/22 07:16:36;;;;;;;14.05;7.03;;;;;;;-148.16;100.00;58328.31;5029011;28;20090;-61
2022/03/22 07:19:23;;;;;;;12.00;6.50;;;;;;;-148.16;100.00;58328.31;5065234;28;20072;-61
2022/03/22 07:22:10;;;;;;;13.30;6.70;;;;;;;-148.16;100.00;58328.31;5052427;28;20049;-62
2022/03/22 07:24:55;;;;;;;14.45;7.32;;;;;;;-148.16;100.00;58328.31;5052356;28;20037;-62
2022/03/22 07:27:40;;;;;;;12.82;6.55;;;;;;;-148.16;100.00;58328.31;5065637;28;20041;-62
2022/03/22 07:30:24;;;;;;;13.75;6.95;;;;;;;-148.16;100.00;58328.31;5065242;28;20489;-62
2022/03/22 07:33:10;;;;;;;9.80;6.80;;;;;;;-148.16;100.00;58328.31;5051844;28;20048;-62
2022/03/22 07:35:55;;;;;;;11.93;6.82;;;;;;;-148.16;100.00;58328.31;5078816;28;20063;-62
2022/03/22 07:38:41;;;;;;;14.88;8.60;;;;;;;-148.16;100.00;58328.31;5050969;28;20041;-62
2022/03/22 07:41:26;;;;;;;20.08;9.40;;;;;;;-148.16;100.00;58328.31;5065069;28;20041;-62
2022/03/22 07:44:12;;;;;;;14.98;7.82;;;;;;;-148.16;100.00;58328.31;5051094;28;20044;-62
2022/03/22 07:46:58;;;;;;;17.23;8.70;;;;;;;-148.16;100.00;58328.31;5064432;28;20133;-62
2022/03/22 07:53:00;;;;;;;19.50;9.80;;;;;;;-148.16;100.00;58328.31;5050488;28;20076;-62
2022/03/22 07:55:45;;;;;;;18.85;9.35;;;;;;;-148.16;100.00;58328.31;5031885;28;20046;-62
2022/03/22 07:58:30;;;;;;;17.90;9.35;;;;;;;-148.16;100.00;58328.31;5031864;28;20045;-63
2022/03/22 08:01:15;;;;;;;18.45;9.77;;;;;;;-148.16;100.00;58328.31;5032214;28;20048;-62
2022/03/22 08:04:00;;;;;;;15.60;8.57;;;;;;;-148.16;100.00;58328.31;5030906;28;20123;-62
2022/03/22 08:06:46;;;;;;;15.27;7.88;;;;;;;-148.16;100.00;58328.31;5032308;28;20053;-62
2022/03/22 08:09:31;;;;;;;14.93;8.25;;;;;;;-148.16;100.00;58328.31;5038192;28;20142;-64
2022/03/22 08:12:16;;;;;;;17.02;9.68;;;;;;;-148.16;100.00;58328.31;5061836;28;20047;-62
2022/03/22 08:15:00;;;;;;;18.52;9.75;;;;;;;-148.16;100.00;58328.31;5045271;28;20045;-65
2022/03/22 08:17:47;;;;;;;14.30;8.00;;;;;;;-148.16;100.00;58328.31;5039473;28;20128;-61
2022/03/22 08:20:32;;;;;;;20.10;9.32;;;;;;;-148.16;100.00;58328.31;5042901;28;20052;-61
2022/03/22 08:23:17;;;;;;;14.93;7.18;;;;;;;-148.16;100.00;58328.31;5011808;28;20111;-63
2022/03/22 08:26:02;;;;;;;16.15;7.65;;;;;;;-148.16;100.00;58328.31;5024593;28;20050;-62
2022/03/22 08:28:49;;;;;;;12.50;6.93;;;;;;;-148.16;100.00;58328.31;5010473;28;20069;-67
2022/03/22 08:31:35;;;;;;;14.02;6.90;;;;;;;-148.16;100.00;58328.31;5024817;28;20045;-62
2022/03/22 08:34:20;;;;;;;11.48;7.00;;;;;;;-148.16;100.00;58328.31;5010490;28;20045;-62
2022/03/22 08:37:05;;;;;;;12.07;7.43;;;;;;;-148.16;100.00;58328.31;5027244;28;20037;-62
2022/03/22 08:39:51;;;;;;;13.55;6.35;;;;;;;-148.16;100.00;58328.31;5045735;28;20507;-63
2022/03/22 08:42:37;;;;;;;14.75;7.50;;;;;;;-148.16;100.00;58328.31;5040411;28;20111;-59
2022/03/22 08:45:24;;;;;;;11.30;7.05;;;;;;;-148.16;100.00;58328.31;5029997;28;20405;-60
2022/03/22 08:48:10;;;;;;;12.95;7.50;;;;;;;-148.16;100.00;58328.31;5031149;28;20045;-62
2022/03/22 08:50:55;;;;;;;11.63;7.47;;;;;;;-148.16;100.00;58328.31;5029742;28;20048;-64
2022/03/22 08:53:40;;;;;;;14.90;7.72;;;;;;;-148.16;100.00;58328.31;5048401;28;20071;-64
2022/03/22 08:56:25;;;;;;;10.25;7.10;;;;;;;-148.16;100.00;58328.31;5025732;28;20049;-63
2022/03/22 08:59:10;;;;;;;9.93;6.82;;;;;;;-148.16;100.00;58328.31;5011376;28;20050;-64
2022/03/22 09:01:56;;;;;;;11.30;7.13;;;;;;;-148.16;100.00;58328.31;5028148;28;20409;-65
2022/03/22 09:07:45;;;;;;;11.38;6.50;;;;;;;-148.16;100.00;58328.31;5028066;28;20108;-61
2022/03/22 09:10:30;;;;;;;9.45;6.22;;;;;;;-148.16;100.00;58328.31;5027885;28;20046;-62
2022/03/22 09:13:17;;;;;;;14.95;6.57;;;;;;;-148.16;100.00;58328.31;5015046;28;20069;-60
2022/03/22 09:16:02;;;;;;;9.18;6.32;;;;;;;-148.16;100.00;58328.31;5013903;28;20149;-61
2022/03/22 09:18:47;;;;;;;14.43;7.20;;;;;;;-148.16;100.00;58328.31;5013773;28;20049;-63
2022/03/22 09:21:32;;;;;;;11.63;6.47;;;;;;;-148.16;100.00;58328.31;5041832;28;20056;-64
2022/03/22 09:24:17;;;;;;;10.18;6.63;;;;;;;-148.16;100.00;58328.31;5015549;28;20050;-62
2022/03/22 09:27:03;;;;;;;10.68;6.03;;;;;;;-148.16;100.00;58328.31;5027666;28;20046;-64
2022/03/22 09:29:48;;;;;;;14.77;6.57;;;;;;;-148.16;100.00;58328.31;5037218;28;20060;-65
2022/03/22 09:32:36;;;;;;;12.63;7.45;;;;;;;-148.16;100.00;58328.31;5045686;28;20037;-64
2022/03/22 09:35:22;;;;;;;11.52;6.47;;;;;;;-148.16;100.00;58328.31;5042465;28;20045;-62
2022/03/22 09:38:07;;;;;;;9.85;6.13;;;;;;;-148.16;100.00;58328.31;5044160;28;20052;-62
2022/03/22 09:40:53;;;;;;;15.73;7.00;;;;;;;-148.16;100.00;58328.31;5063183;28;20428;-63
2022/03/22 09:43:38;;;;;;;11.90;5.88;;;;;;;-148.16;100.00;58328.31;5053339;28;20045;-61
2022/03/22 09:46:23;;;;;;;15.35;6.68;;;;;;;-148.16;100.00;58328.31;5054365;28;20045;-59
2022/03/22 09:49:09;;;;;;;8.02;5.22;;;;;;;-148.16;100.00;58328.31;5066406;28;20056;-58
2022/03/22 09:51:54;;;;;;;10.30;6.22;;;;;;;-148.16;100.00;58328.31;5052571;28;20052;-64
2022/03/22 09:54:39;;;;;;;10.35;6.15;;;;;;;-148.16;100.00;58328.31;5044490;28;20061;-60
2022/03/22 09:57:25;;;;;;;10.93;6.53;;;;;;;-148.16;100.00;58328.31;5033822;28;20393;-61
2022/03/22 10:00:14;;;;;;;9.52;5.40;;;;;;;-148.16;100.00;58328.31;5033592;28;20065;-61
2022/03/22 10:02:59;;;;;;;10.05;6.82;;;;;;;-148.16;100.00;58328.31;5046190;28;20381;-59
2022/03/22 10:05:45;;;;;;;10.20;7.03;;;;;;;-148.16;100.00;58328.31;5038875;28;20116;-55
2022/03/22 10:08:31;;;;;;;12.75;8.05;;;;;;;-148.16;100.00;58328.31;5040786;28;20048;-55
2022/03/22 10:11:16;;;;;;;11.30;7.55;;;;;;;-148.16;100.00;58328.31;5032472;28;20343;-59
2022/03/22 10:14:01;;;;;;;12.82;7.55;;;;;;;-148.16;100.00;58328.31;5032612;28;20404;-54
2022/03/22 10:16:50;;;;;;;13.48;7.95;;;;;;;-148.16;100.00;58328.31;5045972;28;20088;-58
2022/03/22 10:19:52;;;;;;;11.43;7.43;;;;;;;-148.16;100.00;58328.31;5033155;28;20053;-55
2022/03/22 10:22:37;;;;;;;10.30;7.18;;;;;;;-148.16;100.00;58328.31;5031931;28;20493;-55
2022/03/22 10:25:23;;;;;;;16.17;8.43;;;;;;;-148.16;100.00;58328.31;5032111;28;20045;-55
2022/03/22 10:28:09;;;;;;;13.60;7.63;;;;;;;-148.16;100.00;58328.31;5031943;28;20053;-57
2022/03/22 10:30:56;;;;;;;12.23;8.07;;;;;;;-148.16;100.00;58328.31;5017986;28;20049;-57
2022/03/22 10:33:52;;;;;;;9.85;6.93;;;;;;;-148.16;100.00;58328.31;5033187;28;20053;-57
2022/03/22 10:36:39;;;;;;;10.82;7.65;;;;;;;-148.16;100.00;58328.31;5045680;28;20053;-57
2022/03/22 10:39:25;;;;;;;11.07;8.05;;;;;;;-148.16;100.00;58328.31;5031295;28;20137;-57
2022/03/22 10:42:10;;;;;;;8.52;5.90;;;;;;;-148.16;100.00;58328.31;5044769;28;20041;-57
2022/03/22 10:44:58;;;;;;;11.60;6.75;;;;;;;-148.16;100.00;58328.31;5065885;28;20068;-60
2022/03/22 10:47:46;;;;;;;12.65;6.32;;;;;;;-148.16;100.00;58328.31;5053125;28;20056;-62
2022/03/22 10:50:37;;;;;;;13.40;7.32;;;;;;;-148.16;100.00;58328.31;5038061;28;20103;-62
2022/03/22 10:53:26;;;;;;;11.82;7.68;;;;;;;-148.16;100.00;58328.31;5065752;28;20451;-59
2022/03/22 10:56:12;;;;;;;9.18;5.95;;;;;;;-148.16;100.00;58328.31;5025749;28;20379;-60
2022/03/22 10:59:01;;;;;;;11.82;5.90;;;;;;;-148.16;100.00;58328.31;5038889;28;20066;-60
2022/03/22 11:01:49;;;;;;;7.97;4.82;;;;;;;-148.16;100.00;58328.31;5013071;28;20045;-60
2022/03/22 11:04:38;;;;;;;7.65;5.05;;;;;;;-148.16;100.00;58328.31;5013048;28;20398;-60
2022/03/22 11:07:25;;;;;;;12.60;6.25;;;;;;;-148.16;100.00;58328.31;5054222;28;20053;-58
2022/03/22 11:10:11;;;;;;;9.52;6.10;;;;;;;-148.16;100.00;58328.31;5052846;28;20052;-58
2022/03/22 11:12:58;;;;;;;7.75;4.97;;;;;;;-148.16;100.00;58328.31;5051217;28;20057;-59
2022/03/22 11:15:49;;;;;;;7.75;5.22;;;;;;;-148.16;100.00;58328.31;5065286;28;20541;-59
2022/03/22 11:18:35;;;;;;;10.17;5.60;;;;;;;-148.16;100.00;58328.31;5065272;28;20065;-60
2022/03/22 11:21:22;;;;;;;9.35;4.88;;;;;;;-148.16;100.00;58328.31;5064801;28;20302;-61
2022/03/22 11:24:12;;;;;;;9.63;4.78;;;;;;;-148.16;100.00;58328.31;5066343;28;20051;-61
2022/03/22 11:26:57;;;;;;;9.73;6.30;;;;;;;-148.16;100.00;58328.31;5051934;28;20530;-61
2022/03/22 11:29:42;;;;;;;7.55;4.88;;;;;;;-148.16;100.00;58328.31;5052758;28;20128;-61
2022/03/22 11:35:51;;;;;;;9.25;5.10;;;;;;;-148.16;100.00;58328.31;5051092;28;20052;-61
2022/03/22 11:38:51;;;;;;;10.80;4.40;;;;;;;-148.16;100.00;58328.31;5065283;28;20057;-62
2022/03/22 11:45:07;;;;;;;11.15;5.13;;;;;;;-148.16;100.00;58328.31;5052264;28;20040;-64
2022/03/22 11:47:54;;;;;;;9.63;4.70;;;;;;;-148.16;100.00;58328.31;5065151;28;20075;-61
2022/03/22 11:50:45;;;;;;;7.47;4.75;;;;;;;-148.16;100.00;58328.31;5051576;28;20040;-61
2022/03/22 11:53:42;;;;;;;9.05;5.32;;;;;;;-148.16;100.00;58328.31;5084769;28;20049;-63
2022/03/22 11:56:27;;;;;;;6.05;4.15;;;;;;;-148.16;100.00;58328.31;5039271;28;20247;-60
2022/03/22 11:59:16;;;;;;;7.32;5.22;;;;;;;-148.16;100.00;58328.31;5031799;28;20080;-61
2022/03/22 12:02:06;;;;;;;8.55;4.88;;;;;;;-148.16;100.00;58328.31;5012061;28;20038;-59
2022/03/22 12:04:54;;;;;;;7.35;4.78;;;;;;;-148.16;100.00;58328.31;5012454;28;20041;-62
2022/03/22 12:07:41;;;;;;;8.68;4.63;;;;;;;-148.16;100.00;58328.31;5038202;28;20038;-61
2022/03/22 12:10:27;;;;;;;7.18;4.85;;;;;;;-148.16;100.00;58328.31;5024013;28;20042;-60
2022/03/22 12:13:16;;;;;;;8.05;4.57;;;;;;;-148.16;100.00;58328.31;5010497;28;20512;-64
2022/03/22 12:16:01;;;;;;;8.40;5.03;;;;;;;-148.16;100.00;58328.31;5012671;28;20060;-63
2022/03/22 12:18:52;;;;;;;6.25;4.20;;;;;;;-148.16;100.00;58328.31;5011496;28;20401;-64
2022/03/22 12:21:36;;;;;;;7.35;4.68;;;;;;;-148.16;100.00;58328.31;5011624;28;20042;-61
2022/03/22 12:24:23;;;;;;;8.35;4.80;;;;;;;-148.16;100.00;58328.31;5038290;28;20049;-61
2022/03/22 12:27:10;;;;;;;7.38;5.05;;;;;;;-148.16;100.00;58328.31;5024045;28;20125;-63
2022/03/22 12:29:55;;;;;;;10.50;5.25;;;;;;;-148.16;100.00;58328.31;5011227;28;20053;-64
2022/03/22 12:32:40;;;;;;;7.50;5.20;;;;;;;-148.16;100.00;58328.31;5010242;28;20052;-61
2022/03/22 12:35:25;;;;;;;5.35;4.00;;;;;;;-148.16;100.00;58328.31;5010641;28;20094;-69
2022/03/22 12:38:10;;;;;;;8.80;5.22;;;;;;;-148.16;100.00;58328.31;5011049;28;20046;-62
2022/03/22 12:40:55;;;;;;;7.30;5.47;;;;;;;-148.16;100.00;58328.31;5023841;28;20406;-62
2022/03/22 12:43:45;;;;;;;6.20;4.32;;;;;;;-148.16;100.00;58328.31;5011326;28;20131;-61
2022/03/22 12:46:32;;;;;;;7.50;4.45;;;;;;;-148.16;100.00;58328.31;5037969;28;20065;-64
2022/03/22 12:49:19;;;;;;;6.85;4.10;;;;;;;-148.16;100.00;58328.31;5037935;28;20078;-65
2022/03/22 12:52:07;;;;;;;11.43;4.20;;;;;;;-148.16;100.00;58328.31;5017127;28;20389;-63
2022/03/22 12:54:52;;;;;;;10.65;4.63;;;;;;;-148.16;100.00;58328.31;5034807;28;20113;-63
2022/03/22 12:57:42;;;;;;;8.32;5.60;;;;;;;-148.16;100.00;58328.31;5015836;28;20056;-64
2022/03/22 13:00:40;;;;;;;8.18;4.95;;;;;;;-148.16;100.00;58328.31;5030249;28;20050;-64
2022/03/22 13:03:29;;;;;;;7.32;4.63;;;;;;;-148.16;100.00;58328.31;5040388;28;20503;-63